sensor_id;sensor_type;location;lat;lon;timestamp;pressure;altitude;pressure_sealevel;temperature;humidity
56671;BME280;42545;50.054;8.306;2023-03-31T00:01:30;99225.16;;;9.56;100.00
56671;BME280;42545;50.054;8.306;2023-03-31T00:03:58;99225.16;;;9.55;100.00
56671;BME280;42545;50.054;8.306;2023-03-31T00:06:30;99211.09;;;9.51;100.00
56671;BME280;42545;50.054;8.306;2023-03-31T00:09:02;99220.72;;;9.48;100.00
56671;BME280;42545;50.054;8.306;2023-03-31T00:11:29;99224.19;;;9.42;100.00
56671;BME280;42545;50.054;8.306;2023-03-31T00:13:55;99212.72;;;9.35;100.00
56671;BME280;42545;50.054;8.306;2023-03-31T00:16:22;99204.81;;;9.34;100.00
56671;BME280;42545;50.054;8.306;2023-03-31T00:18:51;99199.50;;;9.31;100.00
56671;BME280;42545;50.054;8.306;2023-03-31T00:21:19;99191.63;;;9.29;100.00
56671;BME280;42545;50.054;8.306;2023-03-31T00:23:56;99181.03;;;9.23;100.00
56671;BME280;42545;50.054;8.306;2023-03-31T00:26:24;99182.78;;;9.21;100.00
56671;BME280;42545;50.054;8.306;2023-03-31T00:28:52;99172.22;;;9.18;100.00
56671;BME280;42545;50.054;8.306;2023-03-31T00:31:20;99174.84;;;9.16;100.00
56671;BME280;42545;50.054;8.306;2023-03-31T00:33:50;99154.63;;;9.14;100.00
56671;BME280;42545;50.054;8.306;2023-03-31T00:36:17;99152.88;;;9.11;100.00
56671;BME280;42545;50.054;8.306;2023-03-31T00:38:52;99150.22;;;9.10;100.00
56671;BME280;42545;50.054;8.306;2023-03-31T00:41:19;99144.09;;;9.08;100.00
56671;BME280;42545;50.054;8.306;2023-03-31T00:44:09;99148.44;;;9.04;100.00
56671;BME280;42545;50.054;8.306;2023-03-31T00:46:40;99139.63;;;9.00;100.00
56671;BME280;42545;50.054;8.306;2023-03-31T00:49:15;99138.75;;;8.98;100.00
56671;BME280;42545;50.054;8.306;2023-03-31T00:51:47;99138.72;;;8.95;100.00
56671;BME280;42545;50.054;8.306;2023-03-31T00:54:15;99129.03;;;8.94;100.00
56671;BME280;42545;50.054;8.306;2023-03-31T00:56:44;99131.66;;;8.91;100.00
56671;BME280;42545;50.054;8.306;2023-03-31T00:59:14;99124.63;;;8.90;100.00
56671;BME280;42545;50.054;8.306;2023-03-31T01:01:44;99122.88;;;8.88;100.00
56671;BME280;42545;50.054;8.306;2023-03-31T01:04:16;99130.75;;;8.88;100.00
56671;BME280;42545;50.054;8.306;2023-03-31T01:06:56;99123.72;;;8.87;100.00
56671;BME280;42545;50.054;8.306;2023-03-31T01:09:26;99103.53;;;8.82;100.00
56671;BME280;42545;50.054;8.306;2023-03-31T01:11:55;99099.16;;;8.84;100.00
56671;BME280;42545;50.054;8.306;2023-03-31T01:14:22;99087.75;;;8.82;100.00
56671;BME280;42545;50.054;8.306;2023-03-31T01:16:49;99095.63;;;8.82;100.00
56671;BME280;42545;50.054;8.306;2023-03-31T01:19:26;99086.88;;;8.80;100.00
56671;BME280;42545;50.054;8.306;2023-03-31T01:28:11;99076.31;;;8.77;100.00
56671;BME280;42545;50.054;8.306;2023-03-31T01:31:07;99054.38;;;8.75;100.00
56671;BME280;42545;50.054;8.306;2023-03-31T01:34:02;99049.09;;;8.74;100.00
56671;BME280;42545;50.054;8.306;2023-03-31T01:37:11;99047.34;;;8.73;100.00
56671;BME280;42545;50.054;8.306;2023-03-31T01:40:05;99043.81;;;8.72;100.00
56671;BME280;42545;50.054;8.306;2023-03-31T01:42:36;99035.94;;;8.69;100.00
56671;BME280;42545;50.054;8.306;2023-03-31T01:45:15;99032.41;;;8.67;100.00
56671;BME280;42545;50.054;8.306;2023-03-31T01:47:51;99023.59;;;8.65;100.00
56671;BME280;42545;50.054;8.306;2023-03-31T01:50:27;99017.44;;;8.61;100.00
56671;BME280;42545;50.054;8.306;2023-03-31T01:53:00;99013.06;;;8.59;100.00
56671;BME280;42545;50.054;8.306;2023-03-31T01:55:33;99002.50;;;8.56;100.00
56671;BME280;42545;50.054;8.306;2023-03-31T01:58:05;99001.59;;;8.52;100.00
56671;BME280;42545;50.054;8.306;2023-03-31T02:00:37;98988.47;;;8.51;100.00
56671;BME280;42545;50.054;8.306;2023-03-31T02:03:10;98980.56;;;8.48;100.00
56671;BME280;42545;50.054;8.306;2023-03-31T02:05:43;98978.75;;;8.45;100.00
56671;BME280;42545;50.054;8.306;2023-03-31T02:08:14;98976.13;;;8.42;100.00
56671;BME280;42545;50.054;8.306;2023-03-31T02:10:44;98977.84;;;8.40;100.00
56671;BME280;42545;50.054;8.306;2023-03-31T02:13:14;98964.66;;;8.35;100.00
56671;BME280;42545;50.054;8.306;2023-03-31T02:15:46;98963.78;;;8.35;100.00
56671;BME280;42545;50.054;8.306;2023-03-31T02:18:20;98957.63;;;8.33;100.00
56671;BME280;42545;50.054;8.306;2023-03-31T02:20:53;98957.63;;;8.31;100.00
56671;BME280;42545;50.054;8.306;2023-03-31T02:23:25;98947.94;;;8.28;100.00
56671;BME280;42545;50.054;8.306;2023-03-31T02:26:00;98949.69;;;8.28;100.00
56671;BME280;42545;50.054;8.306;2023-03-31T02:28:29;98947.06;;;8.28;100.00
56671;BME280;42545;50.054;8.306;2023-03-31T02:31:05;98947.94;;;8.28;100.00
56671;BME280;42545;50.054;8.306;2023-03-31T02:33:34;98947.06;;;8.28;100.00
56671;BME280;42545;50.054;8.306;2023-03-31T02:36:01;98937.41;;;8.24;100.00
56671;BME280;42545;50.054;8.306;2023-03-31T02:38:31;98942.69;;;8.28;100.00
56671;BME280;42545;50.054;8.306;2023-03-31T02:41:02;98940.94;;;8.27;100.00
56671;BME280;42545;50.054;8.306;2023-03-31T02:43:28;98936.53;;;8.26;100.00
56671;BME280;42545;50.054;8.306;2023-03-31T02:45:55;98932.16;;;8.28;100.00
56671;BME280;42545;50.054;8.306;2023-03-31T02:48:26;98936.56;;;8.30;100.00
56671;BME280;42545;50.054;8.306;2023-03-31T02:51:12;98926.06;;;8.31;100.00
56671;BME280;42545;50.054;8.306;2023-03-31T02:54:02;98923.44;;;8.31;100.00
56671;BME280;42545;50.054;8.306;2023-03-31T02:56:46;98912.03;;;8.32;100.00
56671;BME280;42545;50.054;8.306;2023-03-31T02:59:32;98891.03;;;8.32;100.00
56671;BME280;42545;50.054;8.306;2023-03-31T03:02:11;98874.41;;;8.33;100.00
56671;BME280;42545;50.054;8.306;2023-03-31T03:05:04;98858.63;;;8.32;100.00
56671;BME280;42545;50.054;8.306;2023-03-31T03:07:43;98837.59;;;8.32;100.00
56671;BME280;42545;50.054;8.306;2023-03-31T03:10:17;98825.34;;;8.31;100.00
56671;BME280;42545;50.054;8.306;2023-03-31T03:12:55;98812.19;;;8.31;100.00
56671;BME280;42545;50.054;8.306;2023-03-31T03:15:26;98812.19;;;8.31;100.00
56671;BME280;42545;50.054;8.306;2023-03-31T03:17:55;98807.78;;;8.30;100.00
56671;BME280;42545;50.054;8.306;2023-03-31T03:20:21;98813.03;;;8.28;100.00
56671;BME280;42545;50.054;8.306;2023-03-31T03:22:48;98820.91;;;8.26;100.00
56671;BME280;42545;50.054;8.306;2023-03-31T03:25:16;98828.78;;;8.25;100.00
56671;BME280;42545;50.054;8.306;2023-03-31T03:27:46;98838.41;;;8.24;100.00
56671;BME280;42545;50.054;8.306;2023-03-31T03:30:16;98829.66;;;8.24;100.00
56671;BME280;42545;50.054;8.306;2023-03-31T03:32:43;98813.88;;;8.22;100.00
56671;BME280;42545;50.054;8.306;2023-03-31T03:35:10;98773.59;;;8.23;100.00
56671;BME280;42545;50.054;8.306;2023-03-31T03:37:37;98780.59;;;8.23;100.00
56671;BME280;42545;50.054;8.306;2023-03-31T03:40:05;98786.72;;;8.20;100.00
56671;BME280;42545;50.054;8.306;2023-03-31T03:42:32;98788.47;;;8.23;100.00
56671;BME280;42545;50.054;8.306;2023-03-31T03:45:00;98769.22;;;8.22;100.00
56671;BME280;42545;50.054;8.306;2023-03-31T03:47:30;98774.44;;;8.21;100.00
56671;BME280;42545;50.054;8.306;2023-03-31T03:49:58;98780.63;;;8.21;100.00
56671;BME280;42545;50.054;8.306;2023-03-31T03:52:24;98753.44;;;8.21;100.00
56671;BME280;42545;50.054;8.306;2023-03-31T03:54:51;98731.53;;;8.19;100.00
56671;BME280;42545;50.054;8.306;2023-03-31T03:57:18;98712.28;;;8.18;100.00
56671;BME280;42545;50.054;8.306;2023-03-31T03:59:45;98722.78;;;8.18;100.00
56671;BME280;42545;50.054;8.306;2023-03-31T04:02:12;98737.66;;;8.19;100.00
56671;BME280;42545;50.054;8.306;2023-03-31T04:04:41;98733.28;;;8.18;100.00
56671;BME280;42545;50.054;8.306;2023-03-31T04:07:10;98720.13;;;8.17;100.00
56671;BME280;42545;50.054;8.306;2023-03-31T04:09:36;98710.50;;;8.13;100.00
56671;BME280;42545;50.054;8.306;2023-03-31T04:12:03;98717.50;;;8.15;100.00
56671;BME280;42545;50.054;8.306;2023-03-31T04:14:30;98720.09;;;8.12;100.00
56671;BME280;42545;50.054;8.306;2023-03-31T04:16:57;98724.50;;;8.12;100.00
56671;BME280;42545;50.054;8.306;2023-03-31T04:19:24;98727.09;;;8.10;100.00
56671;BME280;42545;50.054;8.306;2023-03-31T04:21:53;98712.25;;;8.11;100.00
56671;BME280;42545;50.054;8.306;2023-03-31T04:24:27;98721.00;;;8.11;100.00
56671;BME280;42545;50.054;8.306;2023-03-31T04:26:57;98714.84;;;8.12;100.00
56671;BME280;42545;50.054;8.306;2023-03-31T04:29:25;98706.09;;;8.12;100.00
56671;BME280;42545;50.054;8.306;2023-03-31T04:31:52;98692.09;;;8.11;100.00
56671;BME280;42545;50.054;8.306;2023-03-31T04:34:23;98684.22;;;8.13;100.00
56671;BME280;42545;50.054;8.306;2023-03-31T04:36:53;98687.75;;;8.18;100.00
56671;BME280;42545;50.054;8.306;2023-03-31T04:39:21;98675.47;;;8.17;100.00
56671;BME280;42545;50.054;8.306;2023-03-31T04:41:55;98661.47;;;8.18;100.00
56671;BME280;42545;50.054;8.306;2023-03-31T04:44:22;98643.09;;;8.18;100.00
56671;BME280;42545;50.054;8.306;2023-03-31T04:46:49;98643.97;;;8.18;100.00
56671;BME280;42545;50.054;8.306;2023-03-31T04:49:16;98650.97;;;8.18;100.00
56671;BME280;42545;50.054;8.306;2023-03-31T04:51:43;98654.47;;;8.18;100.00
56671;BME280;42545;50.054;8.306;2023-03-31T04:54:12;98673.75;;;8.20;100.00
56671;BME280;42545;50.054;8.306;2023-03-31T04:56:39;98671.97;;;8.19;100.00
56671;BME280;42545;50.054;8.306;2023-03-31T04:59:06;98661.47;;;8.21;100.00
56671;BME280;42545;50.054;8.306;2023-03-31T05:01:33;98671.13;;;8.22;100.00
56671;BME280;42545;50.054;8.306;2023-03-31T05:04:00;98686.00;;;8.20;100.00
56671;BME280;42545;50.054;8.306;2023-03-31T05:06:27;98686.03;;;8.21;100.00
56671;BME280;42545;50.054;8.306;2023-03-31T05:08:54;98679.00;;;8.22;100.00
56671;BME280;42545;50.054;8.306;2023-03-31T05:11:24;98668.47;;;8.25;100.00
56671;BME280;42545;50.054;8.306;2023-03-31T05:13:50;98675.50;;;8.26;100.00
56671;BME280;42545;50.054;8.306;2023-03-31T05:16:17;98670.25;;;8.27;100.00
56671;BME280;42545;50.054;8.306;2023-03-31T05:18:43;98658.00;;;8.28;100.00
56671;BME280;42545;50.054;8.306;2023-03-31T05:21:12;98654.50;;;8.29;100.00
56671;BME280;42545;50.054;8.306;2023-03-31T05:23:39;98658.00;;;8.31;100.00
56671;BME280;42545;50.054;8.306;2023-03-31T05:26:06;98644.88;;;8.31;100.00
56671;BME280;42545;50.054;8.306;2023-03-31T05:28:35;98632.59;;;8.33;100.00
56671;BME280;42545;50.054;8.306;2023-03-31T05:31:03;98635.25;;;8.35;100.00
56671;BME280;42545;50.054;8.306;2023-03-31T05:33:32;98627.34;;;8.35;100.00
56671;BME280;42545;50.054;8.306;2023-03-31T05:35:59;98624.75;;;8.36;100.00
56671;BME280;42545;50.054;8.306;2023-03-31T05:38:26;98615.09;;;8.37;100.00
56671;BME280;42545;50.054;8.306;2023-03-31T05:40:55;98608.97;;;8.38;100.00
56671;BME280;42545;50.054;8.306;2023-03-31T05:43:22;98599.31;;;8.37;100.00
56671;BME280;42545;50.054;8.306;2023-03-31T05:45:51;98583.56;;;8.29;100.00
56671;BME280;42545;50.054;8.306;2023-03-31T05:48:17;98580.91;;;8.35;100.00
56671;BME280;42545;50.054;8.306;2023-03-31T05:50:45;98568.69;;;8.34;100.00
56671;BME280;42545;50.054;8.306;2023-03-31T05:53:12;98566.03;;;8.36;100.00
56671;BME280;42545;50.054;8.306;2023-03-31T05:55:39;98563.38;;;8.36;100.00
56671;BME280;42545;50.054;8.306;2023-03-31T05:58:06;98543.28;;;8.36;100.00
56671;BME280;42545;50.054;8.306;2023-03-31T06:00:33;98541.50;;;8.35;100.00
56671;BME280;42545;50.054;8.306;2023-03-31T06:03:04;98533.63;;;8.35;100.00
56671;BME280;42545;50.054;8.306;2023-03-31T06:05:33;98526.63;;;8.34;100.00
56671;BME280;42545;50.054;8.306;2023-03-31T06:08:00;98524.84;;;8.33;100.00
56671;BME280;42545;50.054;8.306;2023-03-31T06:10:27;98516.09;;;8.33;100.00
56671;BME280;42545;50.054;8.306;2023-03-31T06:12:54;98503.81;;;8.32;100.00
56671;BME280;42545;50.054;8.306;2023-03-31T06:15:22;98492.44;;;8.30;100.00
56671;BME280;42545;50.054;8.306;2023-03-31T06:17:49;98487.19;;;8.30;100.00
56671;BME280;42545;50.054;8.306;2023-03-31T06:20:17;98486.31;;;8.31;100.00
56671;BME280;42545;50.054;8.306;2023-03-31T06:22:44;98472.28;;;8.30;100.00
56671;BME280;42545;50.054;8.306;2023-03-31T06:25:10;98471.41;;;8.30;100.00
56671;BME280;42545;50.054;8.306;2023-03-31T06:27:37;98460.91;;;8.30;100.00
56671;BME280;42545;50.054;8.306;2023-03-31T06:30:06;98455.66;;;8.30;100.00
56671;BME280;42545;50.054;8.306;2023-03-31T06:32:33;98448.63;;;8.30;100.00
56671;BME280;42545;50.054;8.306;2023-03-31T06:34:59;98442.53;;;8.33;100.00
56671;BME280;42545;50.054;8.306;2023-03-31T06:37:27;98437.25;;;8.31;100.00
56671;BME280;42545;50.054;8.306;2023-03-31T06:39:54;98434.63;;;8.31;100.00
56671;BME280;42545;50.054;8.306;2023-03-31T06:42:21;98423.22;;;8.32;100.00
56671;BME280;42545;50.054;8.306;2023-03-31T06:44:48;98420.59;;;8.34;100.00
56671;BME280;42545;50.054;8.306;2023-03-31T06:47:15;98417.97;;;8.35;100.00
56671;BME280;42545;50.054;8.306;2023-03-31T06:49:41;98399.59;;;8.34;100.00
56671;BME280;42545;50.054;8.306;2023-03-31T06:52:08;98405.72;;;8.37;100.00
56671;BME280;42545;50.054;8.306;2023-03-31T06:54:36;98397.81;;;8.37;100.00
56671;BME280;42545;50.054;8.306;2023-03-31T06:57:02;98382.97;;;8.27;100.00
56671;BME280;42545;50.054;8.306;2023-03-31T06:59:29;98397.81;;;8.39;100.00
56671;BME280;42545;50.054;8.306;2023-03-31T07:01:56;98398.69;;;8.39;100.00
56671;BME280;42545;50.054;8.306;2023-03-31T07:04:23;98402.19;;;8.41;100.00
56671;BME280;42545;50.054;8.306;2023-03-31T07:06:50;98415.38;;;8.43;100.00
56671;BME280;42545;50.054;8.306;2023-03-31T07:09:16;98434.66;;;8.43;100.00
56671;BME280;42545;50.054;8.306;2023-03-31T07:11:47;98457.44;;;8.44;100.00
56671;BME280;42545;50.054;8.306;2023-03-31T07:14:14;98461.81;;;8.42;100.00
56671;BME280;42545;50.054;8.306;2023-03-31T07:16:41;98481.94;;;8.46;100.00
56671;BME280;42545;50.054;8.306;2023-03-31T07:19:07;98457.44;;;8.44;100.00
56671;BME280;42545;50.054;8.306;2023-03-31T07:21:37;98429.38;;;8.48;100.00
56671;BME280;42545;50.054;8.306;2023-03-31T07:24:04;98423.28;;;8.51;100.00
56671;BME280;42545;50.054;8.306;2023-03-31T07:26:32;98396.09;;;8.53;100.00
56671;BME280;42545;50.054;8.306;2023-03-31T07:29:02;98412.72;;;8.55;100.00
56671;BME280;42545;50.054;8.306;2023-03-31T07:31:28;98410.09;;;8.58;100.00
56671;BME280;42545;50.054;8.306;2023-03-31T07:33:55;98414.47;;;8.59;100.00
56671;BME280;42545;50.054;8.306;2023-03-31T07:36:23;98413.59;;;8.63;100.00
56671;BME280;42545;50.054;8.306;2023-03-31T07:38:50;98417.97;;;8.69;100.00
56671;BME280;42545;50.054;8.306;2023-03-31T07:41:18;98401.28;;;8.72;100.00
56671;BME280;42545;50.054;8.306;2023-03-31T07:43:46;98386.38;;;8.78;100.00
56671;BME280;42545;50.054;8.306;2023-03-31T07:46:16;98388.97;;;8.84;100.00
56671;BME280;42545;50.054;8.306;2023-03-31T07:48:43;98383.66;;;9.03;100.00
56671;BME280;42545;50.054;8.306;2023-03-31T07:51:10;98375.69;;;9.17;100.00
56671;BME280;42545;50.054;8.306;2023-03-31T07:53:37;98385.31;;;9.26;100.00
56671;BME280;42545;50.054;8.306;2023-03-31T07:56:04;98390.53;;;9.30;100.00
56671;BME280;42545;50.054;8.306;2023-03-31T07:58:31;98398.44;;;9.32;100.00
56671;BME280;42545;50.054;8.306;2023-03-31T08:00:58;98392.28;;;9.33;100.00
56671;BME280;42545;50.054;8.306;2023-03-31T08:03:27;98410.69;;;9.40;100.00
56671;BME280;42545;50.054;8.306;2023-03-31T08:05:54;98421.16;;;9.48;100.00
56671;BME280;42545;50.054;8.306;2023-03-31T08:08:20;98409.72;;;9.51;100.00
56671;BME280;42545;50.054;8.306;2023-03-31T08:10:47;98400.94;;;9.52;100.00
56671;BME280;42545;50.054;8.306;2023-03-31T08:13:14;98411.44;;;9.62;100.00
56671;BME280;42545;50.054;8.306;2023-03-31T08:15:40;98407.72;;;9.88;100.00
56671;BME280;42545;50.054;8.306;2023-03-31T08:18:07;98399.81;;;9.91;100.00
56671;BME280;42545;50.054;8.306;2023-03-31T08:20:35;98399.75;;;9.96;100.00
56671;BME280;42545;50.054;8.306;2023-03-31T08:23:03;98402.41;;;9.97;100.00
56671;BME280;42545;50.054;8.306;2023-03-31T08:25:33;98403.31;;;9.92;100.00
56671;BME280;42545;50.054;8.306;2023-03-31T08:27:59;98392.84;;;9.84;100.00
56671;BME280;42545;50.054;8.306;2023-03-31T08:30:26;98380.59;;;9.75;100.00
56671;BME280;42545;50.054;8.306;2023-03-31T08:32:53;98369.28;;;9.66;100.00
56671;BME280;42545;50.054;8.306;2023-03-31T08:35:19;98368.44;;;9.60;100.00
56671;BME280;42545;50.054;8.306;2023-03-31T08:37:47;98387.75;;;9.56;100.00
56671;BME280;42545;50.054;8.306;2023-03-31T08:40:18;98388.66;;;9.54;100.00
56671;BME280;42545;50.054;8.306;2023-03-31T08:42:49;98391.28;;;9.52;100.00
56671;BME280;42545;50.054;8.306;2023-03-31T08:45:20;98390.41;;;9.53;100.00
56671;BME280;42545;50.054;8.306;2023-03-31T08:47:51;98388.63;;;9.57;100.00
56671;BME280;42545;50.054;8.306;2023-03-31T08:50:24;98378.91;;;9.68;100.00
56671;BME280;42545;50.054;8.306;2023-03-31T08:52:58;98374.44;;;9.79;100.00
56671;BME280;42545;50.054;8.306;2023-03-31T08:55:30;98369.91;;;9.98;100.00
56671;BME280;42545;50.054;8.306;2023-03-31T08:58:05;98372.22;;;10.35;100.00
56671;BME280;42545;50.054;8.306;2023-03-31T09:00:38;98355.34;;;10.53;100.00
56671;BME280;42545;50.054;8.306;2023-03-31T09:03:14;98356.66;;;10.91;100.00
56671;BME280;42545;50.054;8.306;2023-03-31T09:05:50;98365.38;;;10.98;100.00
56671;BME280;42545;50.054;8.306;2023-03-31T09:08:30;98349.53;;;10.98;100.00
56671;BME280;42545;50.054;8.306;2023-03-31T09:11:10;98359.25;;;10.94;100.00
56671;BME280;42545;50.054;8.306;2023-03-31T09:13:51;98351.41;;;10.90;100.00
56671;BME280;42545;50.054;8.306;2023-03-31T09:16:23;98351.47;;;10.82;100.00
56671;BME280;42545;50.054;8.306;2023-03-31T09:18:52;98362.09;;;10.81;100.00
56671;BME280;42545;50.054;8.306;2023-03-31T09:21:25;98362.09;;;10.79;100.00
56671;BME280;42545;50.054;8.306;2023-03-31T09:23:59;98362.09;;;10.77;100.00
56671;BME280;42545;50.054;8.306;2023-03-31T09:26:35;98373.50;;;10.80;100.00
56671;BME280;42545;50.054;8.306;2023-03-31T09:29:06;98362.94;;;10.81;100.00
56671;BME280;42545;50.054;8.306;2023-03-31T09:31:37;98351.53;;;10.81;100.00
56671;BME280;42545;50.054;8.306;2023-03-31T09:34:12;98346.91;;;10.96;100.00
56671;BME280;42545;50.054;8.306;2023-03-31T09:36:40;98344.88;;;11.19;100.00
56671;BME280;42545;50.054;8.306;2023-03-31T09:39:13;98336.69;;;11.37;100.00
56671;BME280;42545;50.054;8.306;2023-03-31T09:41:43;98322.56;;;11.41;100.00
56671;BME280;42545;50.054;8.306;2023-03-31T09:44:22;98314.56;;;11.44;100.00
56671;BME280;42545;50.054;8.306;2023-03-31T09:46:50;98319.84;;;11.46;100.00
56671;BME280;42545;50.054;8.306;2023-03-31T09:49:21;98304.97;;;11.40;100.00
56671;BME280;42545;50.054;8.306;2023-03-31T09:51:56;98302.34;;;11.37;100.00
56671;BME280;42545;50.054;8.306;2023-03-31T09:54:34;98291.06;;;11.27;100.00
56671;BME280;42545;50.054;8.306;2023-03-31T09:57:12;98284.94;;;11.27;100.00
56671;BME280;42545;50.054;8.306;2023-03-31T09:59:39;98285.72;;;11.32;100.00
56671;BME280;42545;50.054;8.306;2023-03-31T10:02:23;98273.50;;;11.26;100.00
56671;BME280;42545;50.054;8.306;2023-03-31T10:04:53;98277.88;;;11.26;100.00
56671;BME280;42545;50.054;8.306;2023-03-31T10:07:22;98280.69;;;11.15;100.00
56671;BME280;42545;50.054;8.306;2023-03-31T10:09:53;98294.84;;;11.09;100.00
56671;BME280;42545;50.054;8.306;2023-03-31T10:12:22;98339.84;;;10.99;100.00
56671;BME280;42545;50.054;8.306;2023-03-31T10:14:51;98340.94;;;10.82;100.00
56671;BME280;42545;50.054;8.306;2023-03-31T10:17:23;98313.22;;;10.46;98.54
56671;BME280;42545;50.054;8.306;2023-03-31T10:19:51;98335.44;;;10.20;100.00
56671;BME280;42545;50.054;8.306;2023-03-31T10:22:26;98338.31;;;9.91;100.00
56671;BME280;42545;50.054;8.306;2023-03-31T10:25:07;98335.91;;;9.68;100.00
56671;BME280;42545;50.054;8.306;2023-03-31T10:27:38;98295.72;;;9.41;100.00
56671;BME280;42545;50.054;8.306;2023-03-31T10:30:09;98308.94;;;9.29;100.00
56671;BME280;42545;50.054;8.306;2023-03-31T10:32:39;98295.84;;;9.18;100.00
56671;BME280;42545;50.054;8.306;2023-03-31T10:35:13;98298.53;;;9.10;100.00
56671;BME280;42545;50.054;8.306;2023-03-31T10:37:47;98291.59;;;9.00;100.00
56671;BME280;42545;50.054;8.306;2023-03-31T10:40:19;98289.00;;;8.97;100.00
56671;BME280;42545;50.054;8.306;2023-03-31T10:43:03;98288.06;;;9.02;100.00
56671;BME280;42545;50.054;8.306;2023-03-31T10:45:36;98288.03;;;9.09;100.00
56671;BME280;42545;50.054;8.306;2023-03-31T10:48:16;98285.38;;;9.16;100.00
56671;BME280;42545;50.054;8.306;2023-03-31T10:50:43;98291.38;;;9.34;100.00
56671;BME280;42545;50.054;8.306;2023-03-31T10:53:12;98291.28;;;9.49;100.00
56671;BME280;42545;50.054;8.306;2023-03-31T10:55:46;98286.72;;;9.68;100.00
56671;BME280;42545;50.054;8.306;2023-03-31T10:58:30;98275.91;;;10.00;100.00
56671;BME280;42545;50.054;8.306;2023-03-31T11:01:05;98277.31;;;10.37;100.00
56671;BME280;42545;50.054;8.306;2023-03-31T11:03:48;98278.50;;;10.83;100.00
56671;BME280;42545;50.054;8.306;2023-03-31T11:06:23;98268.28;;;11.20;100.00
56671;BME280;42545;50.054;8.306;2023-03-31T11:09:00;98268.66;;;11.53;100.00
56671;BME280;42545;50.054;8.306;2023-03-31T11:11:51;98272.41;;;11.94;100.00
56671;BME280;42545;50.054;8.306;2023-03-31T11:14:26;98277.91;;;12.30;100.00
56671;BME280;42545;50.054;8.306;2023-03-31T11:17:02;98266.06;;;12.49;100.00
56671;BME280;42545;50.054;8.306;2023-03-31T11:19:37;98265.00;;;12.60;99.17
56671;BME280;42545;50.054;8.306;2023-03-31T11:22:11;98268.78;;;12.46;93.18
56671;BME280;42545;50.054;8.306;2023-03-31T11:24:59;98265.59;;;12.30;94.53
56671;BME280;42545;50.054;8.306;2023-03-31T11:27:39;98270.91;;;12.27;96.57
56671;BME280;42545;50.054;8.306;2023-03-31T11:30:17;98262.31;;;12.18;96.69
56671;BME280;42545;50.054;8.306;2023-03-31T11:32:57;98265.06;;;12.10;96.85
56671;BME280;42545;50.054;8.306;2023-03-31T11:35:38;98251.19;;;11.99;97.09
56671;BME280;42545;50.054;8.306;2023-03-31T11:38:26;98243.41;;;11.88;99.01
56671;BME280;42545;50.054;8.306;2023-03-31T11:40:59;98244.38;;;11.82;100.00
56671;BME280;42545;50.054;8.306;2023-03-31T11:43:32;98248.94;;;11.76;100.00
56671;BME280;42545;50.054;8.306;2023-03-31T11:46:02;98231.31;;;11.74;100.00
56671;BME280;42545;50.054;8.306;2023-03-31T11:48:38;98231.16;;;11.84;100.00
56671;BME280;42545;50.054;8.306;2023-03-31T11:51:11;98226.41;;;12.03;100.00
56671;BME280;42545;50.054;8.306;2023-03-31T11:53:41;98224.47;;;12.14;100.00
56671;BME280;42545;50.054;8.306;2023-03-31T11:56:10;98236.84;;;12.12;100.00
56671;BME280;42545;50.054;8.306;2023-03-31T11:58:43;98229.94;;;12.05;100.00
56671;BME280;42545;50.054;8.306;2023-03-31T12:01:16;98226.47;;;12.01;100.00
56671;BME280;42545;50.054;8.306;2023-03-31T12:03:52;98230.06;;;11.97;100.00
56671;BME280;42545;50.054;8.306;2023-03-31T12:06:23;98227.50;;;11.92;100.00
56671;BME280;42545;50.054;8.306;2023-03-31T12:09:02;98243.47;;;11.85;100.00
56671;BME280;42545;50.054;8.306;2023-03-31T12:11:35;98256.19;;;11.63;100.00
56671;BME280;42545;50.054;8.306;2023-03-31T12:14:13;98223.06;;;11.43;100.00
56671;BME280;42545;50.054;8.306;2023-03-31T12:16:45;98213.72;;;11.21;100.00
56671;BME280;42545;50.054;8.306;2023-03-31T12:19:16;98206.22;;;10.94;100.00
56671;BME280;42545;50.054;8.306;2023-03-31T12:21:49;98203.13;;;10.65;100.00
56671;BME280;42545;50.054;8.306;2023-03-31T12:24:17;98214.00;;;10.38;100.00
56671;BME280;42545;50.054;8.306;2023-03-31T12:26:52;98213.31;;;10.21;100.00
56671;BME280;42545;50.054;8.306;2023-03-31T12:29:28;98209.03;;;10.11;100.00
56671;BME280;42545;50.054;8.306;2023-03-31T12:31:59;98212.56;;;10.08;100.00
56671;BME280;42545;50.054;8.306;2023-03-31T12:34:27;98212.56;;;10.10;100.00
56671;BME280;42545;50.054;8.306;2023-03-31T12:37:05;98208.03;;;10.23;100.00
56671;BME280;42545;50.054;8.306;2023-03-31T12:39:40;98211.31;;;10.43;100.00
56671;BME280;42545;50.054;8.306;2023-03-31T12:42:34;98203.16;;;10.60;100.00
56671;BME280;42545;50.054;8.306;2023-03-31T12:45:12;98203.13;;;10.63;100.00
56671;BME280;42545;50.054;8.306;2023-03-31T12:47:58;98204.84;;;10.67;100.00
56671;BME280;42545;50.054;8.306;2023-03-31T12:50:47;98202.06;;;10.75;100.00
56671;BME280;42545;50.054;8.306;2023-03-31T12:53:23;98202.78;;;10.88;100.00
56671;BME280;42545;50.054;8.306;2023-03-31T12:55:55;98190.47;;;10.90;100.00
56671;BME280;42545;50.054;8.306;2023-03-31T12:58:41;98192.13;;;10.95;100.00
56671;BME280;42545;50.054;8.306;2023-03-31T13:01:12;98196.44;;;11.03;100.00
56671;BME280;42545;50.054;8.306;2023-03-31T13:03:49;98185.63;;;11.16;100.00
56671;BME280;42545;50.054;8.306;2023-03-31T13:06:54;98184.66;;;11.22;100.00
56671;BME280;42545;50.054;8.306;2023-03-31T13:09:39;98182.78;;;11.30;100.00
56671;BME280;42545;50.054;8.306;2023-03-31T13:12:07;98180.03;;;11.37;100.00
56671;BME280;42545;50.054;8.306;2023-03-31T13:14:36;98168.56;;;11.38;100.00
56671;BME280;42545;50.054;8.306;2023-03-31T13:17:19;98179.97;;;11.41;100.00
56671;BME280;42545;50.054;8.306;2023-03-31T13:19:48;98168.56;;;11.39;100.00
56671;BME280;42545;50.054;8.306;2023-03-31T13:22:32;98171.31;;;11.31;100.00
56671;BME280;42545;50.054;8.306;2023-03-31T13:25:29;98175.91;;;11.19;99.22
56671;BME280;42545;50.054;8.306;2023-03-31T13:28:08;98163.91;;;11.01;98.07